createdAt,value
2022-08-09T00:00:49.553Z,9
2022-08-09T00:10:49.624Z,5
2022-08-09T00:20:50.643Z,1
2022-08-09T00:30:50.631Z,0
2022-08-09T00:40:52.962Z,0
2022-08-09T00:50:52.204Z,0
2022-08-09T01:00:52.322Z,0
2022-08-09T01:10:52.631Z,0
2022-08-09T01:20:53.158Z,0
2022-08-09T01:30:53.365Z,0
2022-08-09T01:41:03.259Z,0
2022-08-09T01:50:54.884Z,0
2022-08-09T02:00:55.167Z,0
2022-08-09T02:10:55.340Z,0
2022-08-09T02:20:55.747Z,0
2022-08-09T02:30:56.605Z,0
2022-08-09T02:50:57.903Z,0
2022-08-09T03:00:58.929Z,0
2022-08-09T03:31:04.365Z,0
2022-08-09T03:51:01.931Z,0
2022-08-09T04:01:02.190Z,0
2022-08-09T04:11:03.115Z,0
2022-08-09T04:21:03.944Z,0
2022-08-09T04:31:05.640Z,0
2022-08-09T04:41:04.621Z,0
2022-08-09T04:51:04.995Z,0
2022-08-09T05:01:05.697Z,0
2022-08-09T05:11:06.829Z,0
2022-08-09T05:21:09.912Z,0
2022-08-09T05:31:09.553Z,0
2022-08-09T05:41:06.613Z,0
2022-08-09T05:51:17.031Z,0
2022-08-09T06:01:08.395Z,0
2022-08-09T06:11:16.208Z,0
2022-08-09T06:21:10.326Z,0
2022-08-09T06:31:10.060Z,0
2022-08-09T06:51:11.064Z,0
2022-08-09T07:01:12.113Z,0
2022-08-09T07:11:12.933Z,15
2022-08-09T07:21:13.190Z,32
2022-08-09T07:31:13.647Z,28
2022-08-09T07:41:14.077Z,51
2022-08-09T07:52:04.058Z,42
2022-08-09T08:01:15.345Z,45
2022-08-09T08:12:09.552Z,65
2022-08-09T08:21:16.035Z,71
2022-08-09T08:31:16.740Z,74
2022-08-09T08:41:16.853Z,81
2022-08-09T08:51:18.160Z,90
2022-08-09T09:01:20.952Z,94
2022-08-09T09:11:19.865Z,94
2022-08-09T09:21:25.164Z,98
2022-08-09T09:32:04.797Z,99
2022-08-09T09:41:20.349Z,100
2022-08-09T09:51:26.237Z,100
2022-08-09T10:01:30.360Z,100
2022-08-09T10:02:01.092Z,100
2022-08-09T10:12:01.021Z,100
2022-08-09T10:21:28.831Z,100
2022-08-09T10:41:29.742Z,97
2022-08-09T11:03:03.457Z,96
2022-08-09T11:11:31.069Z,93
2022-08-09T11:21:31.122Z,90
2022-08-09T11:31:33.999Z,90
2022-08-09T11:41:37.796Z,87
2022-08-09T11:52:49.809Z,85
2022-08-09T12:01:37.986Z,85
2022-08-09T12:11:37.464Z,86
2022-08-09T12:21:38.477Z,85
2022-08-09T12:31:58.344Z,84
2022-08-09T12:41:39.411Z,83
2022-08-09T12:51:52.935Z,85
2022-08-09T13:01:38.116Z,84
2022-08-09T13:11:39.316Z,79
2022-08-09T13:22:34.801Z,80
2022-08-09T13:32:12.733Z,80
2022-08-09T13:41:56.921Z,79
2022-08-09T14:01:55.910Z,80
2022-08-09T14:11:41.219Z,80
2022-08-09T14:21:41.030Z,79
2022-08-09T14:31:49.689Z,77
2022-08-09T14:41:42.076Z,77
2022-08-09T14:51:42.096Z,77
2022-08-09T15:01:42.631Z,76
2022-08-09T15:11:46.796Z,76
2022-08-09T15:21:54.441Z,73
2022-08-09T15:31:44.261Z,74
2022-08-09T15:41:48.500Z,74
2022-08-09T15:52:04.223Z,74
2022-08-09T16:01:45.527Z,74
2022-08-09T16:11:50.423Z,75
2022-08-09T16:21:48.470Z,74
2022-08-09T16:32:10.824Z,74
2022-08-09T16:42:02.387Z,75
2022-08-09T16:51:53.936Z,74
2022-08-09T17:01:51.219Z,75
2022-08-09T17:11:51.653Z,75
2022-08-09T17:21:54.641Z,75
2022-08-09T17:31:49.825Z,77
2022-08-09T17:41:50.784Z,77
2022-08-09T17:51:51.687Z,76
2022-08-09T18:02:03.930Z,77
2022-08-09T18:12:06.050Z,77
2022-08-09T18:21:53.823Z,80
2022-08-09T18:41:54.738Z,83
2022-08-09T18:51:57.715Z,84
2022-08-09T19:11:56.853Z,89
2022-08-09T19:22:05.261Z,90
2022-08-09T19:31:59.805Z,93
2022-08-09T19:41:58.236Z,96
2022-08-09T19:51:58.772Z,99
2022-08-09T20:02:03.651Z,100
2022-08-09T20:12:02.253Z,100
2022-08-09T20:22:00.872Z,100
2022-08-09T20:32:29.449Z,100
2022-08-09T20:42:01.531Z,100
2022-08-09T20:52:02.368Z,100
2022-08-09T21:02:03.220Z,100
2022-08-09T21:22:03.989Z,100
2022-08-09T21:32:04.820Z,100
2022-08-09T21:42:07.015Z,100
2022-08-09T21:52:05.515Z,100
2022-08-09T22:02:06.309Z,100
2022-08-09T22:12:17.678Z,100
2022-08-09T22:22:07.894Z,100
2022-08-09T22:32:08.077Z,95
2022-08-09T22:42:21.637Z,90
2022-08-09T22:52:09.251Z,85
2022-08-09T23:02:10.235Z,80
2022-08-09T23:22:10.976Z,64
2022-08-09T23:32:11.114Z,56
2022-08-09T23:42:12.088Z,51
2022-08-09T23:52:12.657Z,41
